createdAt,value
2023-03-29T00:00:15.479Z,95056.00
2023-03-29T00:01:35.857Z,95063.00
2023-03-29T00:02:16.579Z,95065.00
2023-03-29T00:03:15.616Z,95065.00
2023-03-29T00:04:15.589Z,95065.00
2023-03-29T00:05:15.506Z,95065.00
2023-03-29T00:06:15.514Z,95067.00
2023-03-29T00:07:15.505Z,95069.00
2023-03-29T00:08:15.507Z,95071.00
2023-03-29T00:09:15.493Z,95075.00
2023-03-29T00:10:15.486Z,95073.00
2023-03-29T00:11:15.557Z,95071.00
2023-03-29T00:12:15.624Z,95062.00
2023-03-29T00:13:15.779Z,95048.00
2023-03-29T00:14:15.747Z,95046.00
2023-03-29T00:15:15.803Z,95048.00
2023-03-29T00:16:15.903Z,95046.00
2023-03-29T00:17:15.917Z,95050.00
2023-03-29T00:18:15.998Z,95054.00
2023-03-29T00:19:16.015Z,95052.00
2023-03-29T00:20:16.082Z,95052.00
2023-03-29T00:21:16.136Z,95056.00
2023-03-29T00:22:16.190Z,95060.00
2023-03-29T00:23:16.246Z,95063.00
2023-03-29T00:24:16.304Z,95067.00
2023-03-29T00:25:16.386Z,95071.00
2023-03-29T00:26:16.469Z,95067.00
2023-03-29T00:27:16.515Z,95071.00
2023-03-29T00:28:16.540Z,95071.00
2023-03-29T00:29:16.647Z,95071.00
2023-03-29T00:30:16.702Z,95073.00
2023-03-29T00:31:16.791Z,95075.00
2023-03-29T00:32:16.824Z,95083.00
2023-03-29T00:33:16.854Z,95087.00
2023-03-29T00:34:16.921Z,95085.00
2023-03-29T00:35:16.983Z,95083.00
2023-03-29T00:36:17.043Z,95083.00
2023-03-29T00:37:17.112Z,95087.00
2023-03-29T00:38:17.157Z,95091.00
2023-03-29T00:39:17.221Z,95097.00
2023-03-29T00:40:17.309Z,95097.00
2023-03-29T00:41:17.354Z,95097.00
2023-03-29T00:42:17.424Z,95097.00
2023-03-29T00:43:17.458Z,95095.00
2023-03-29T00:44:17.548Z,95099.00
2023-03-29T00:45:17.593Z,95101.00
2023-03-29T00:46:17.693Z,95103.00
2023-03-29T00:47:17.706Z,95101.00
2023-03-29T00:48:17.746Z,95097.00
2023-03-29T00:49:17.809Z,95095.00
2023-03-29T00:50:17.876Z,95097.00
2023-03-29T00:51:17.965Z,95101.00
2023-03-29T00:52:18.021Z,95103.00
2023-03-29T00:53:18.060Z,95107.00
2023-03-29T00:54:18.113Z,95109.00
2023-03-29T00:55:18.204Z,95112.00
2023-03-29T00:56:18.255Z,95114.00
2023-03-29T00:57:18.373Z,95120.00
2023-03-29T00:58:18.355Z,95124.00
2023-03-29T00:59:18.425Z,95130.00
2023-03-29T01:00:18.468Z,95132.00
2023-03-29T01:01:18.638Z,95132.00
2023-03-29T01:02:18.605Z,95130.00
2023-03-29T01:03:18.688Z,95124.00
2023-03-29T01:04:18.726Z,95120.00
2023-03-29T01:05:18.741Z,95120.00
2023-03-29T01:06:18.828Z,95122.00
2023-03-29T01:07:18.909Z,95120.00
2023-03-29T01:08:18.929Z,95120.00
2023-03-29T01:09:18.966Z,95122.00
2023-03-29T01:10:19.036Z,95120.00
2023-03-29T01:11:19.217Z,95120.00
2023-03-29T01:12:19.171Z,95116.00
2023-03-29T01:13:19.238Z,95112.00
2023-03-29T01:14:19.289Z,95110.00
2023-03-29T01:15:19.345Z,95107.00
2023-03-29T01:16:19.444Z,95110.00
2023-03-29T01:17:19.447Z,95114.00
2023-03-29T01:18:19.479Z,95112.00
2023-03-29T01:19:19.531Z,95112.00
2023-03-29T01:20:19.594Z,95114.00
2023-03-29T01:21:19.657Z,95112.00
2023-03-29T01:22:19.714Z,95116.00
2023-03-29T01:23:19.778Z,95118.00
2023-03-29T01:24:19.855Z,95128.00
2023-03-29T01:25:19.910Z,95126.00
2023-03-29T01:26:19.980Z,95120.00
2023-03-29T01:27:20.031Z,95118.00
2023-03-29T01:28:20.122Z,95112.00
2023-03-29T01:29:20.164Z,95110.00
2023-03-29T01:30:20.230Z,95110.00
2023-03-29T01:31:20.313Z,95110.00
2023-03-29T01:32:20.408Z,95110.00
2023-03-29T01:33:20.589Z,95112.00
2023-03-29T01:34:20.759Z,95112.00
2023-03-29T01:35:20.995Z,95112.00
2023-03-29T01:36:21.223Z,95112.00
2023-03-29T01:37:21.349Z,95112.00
2023-03-29T01:38:21.536Z,95112.00
2023-03-29T01:39:21.774Z,95110.00
2023-03-29T01:40:21.969Z,95112.00
2023-03-29T01:41:22.152Z,95112.00
2023-03-29T01:42:22.372Z,95110.00
2023-03-29T01:43:22.568Z,95110.00
2023-03-29T01:44:22.762Z,95110.00
2023-03-29T01:45:22.982Z,95110.00
2023-03-29T01:46:23.155Z,95112.00
2023-03-29T01:47:23.353Z,95110.00
2023-03-29T01:48:23.486Z,95110.00
2023-03-29T01:49:23.624Z,95109.00
2023-03-29T01:50:23.733Z,95107.00
2023-03-29T01:51:24.001Z,95105.00
2023-03-29T01:52:24.216Z,95101.00
2023-03-29T01:53:24.407Z,95101.00
2023-03-29T01:54:24.580Z,95105.00
2023-03-29T01:55:24.778Z,95101.00
2023-03-29T01:56:24.977Z,95099.00
2023-03-29T01:57:25.370Z,95101.00
2023-03-29T01:58:25.411Z,95101.00
2023-03-29T01:59:25.606Z,95101.00
2023-03-29T02:00:25.852Z,95105.00
2023-03-29T02:01:26.105Z,95107.00
2023-03-29T02:02:26.412Z,95107.00
2023-03-29T02:03:26.396Z,95107.00
2023-03-29T02:04:26.317Z,95109.00
2023-03-29T02:05:26.311Z,95109.00
2023-03-29T02:06:26.297Z,95107.00
2023-03-29T02:07:26.280Z,95107.00
2023-03-29T02:08:26.308Z,95105.00
2023-03-29T02:09:26.353Z,95103.00
2023-03-29T02:10:26.344Z,95097.00
2023-03-29T02:11:26.332Z,95093.00
2023-03-29T02:12:26.348Z,95093.00
2023-03-29T02:13:26.316Z,95091.00
2023-03-29T02:14:26.305Z,95087.00
2023-03-29T02:15:26.369Z,95079.00
2023-03-29T02:16:26.289Z,95075.00
2023-03-29T02:17:26.366Z,95073.00
2023-03-29T02:18:26.290Z,95071.00
2023-03-29T02:19:26.267Z,95071.00
2023-03-29T02:20:26.260Z,95069.00
2023-03-29T02:21:26.272Z,95069.00
2023-03-29T02:22:26.260Z,95071.00
2023-03-29T02:23:26.263Z,95077.00
2023-03-29T02:24:26.261Z,95087.00
2023-03-29T02:25:26.260Z,95091.00
2023-03-29T02:26:26.265Z,95093.00
2023-03-29T02:27:26.234Z,95093.00
2023-03-29T02:28:26.215Z,95091.00
2023-03-29T02:29:26.241Z,95091.00
2023-03-29T02:30:26.195Z,95093.00
2023-03-29T02:31:26.252Z,95093.00
2023-03-29T02:32:26.249Z,95091.00
2023-03-29T02:33:26.173Z,95091.00
2023-03-29T02:34:26.205Z,95089.00
2023-03-29T02:35:26.160Z,95091.00
2023-03-29T02:36:26.151Z,95089.00
2023-03-29T02:37:26.142Z,95087.00
2023-03-29T02:38:26.153Z,95083.00
2023-03-29T02:39:26.127Z,95079.00
2023-03-29T02:40:26.160Z,95077.00
2023-03-29T02:41:26.153Z,95071.00
2023-03-29T02:42:26.120Z,95067.00
2023-03-29T02:43:26.231Z,95067.00
2023-03-29T02:44:26.095Z,95065.00
2023-03-29T02:45:26.087Z,95065.00
2023-03-29T02:46:26.144Z,95067.00
2023-03-29T02:47:26.115Z,95065.00
2023-03-29T02:48:26.071Z,95063.00
2023-03-29T02:49:26.104Z,95060.00
2023-03-29T02:50:26.158Z,95060.00
2023-03-29T02:51:26.196Z,95060.00
2023-03-29T02:52:26.264Z,95054.00
2023-03-29T02:53:26.350Z,95052.00
2023-03-29T02:54:26.403Z,95056.00
2023-03-29T02:55:26.446Z,95050.00
2023-03-29T02:56:26.523Z,95050.00
2023-03-29T02:57:26.822Z,95052.00
2023-03-29T02:58:26.687Z,95058.00
2023-03-29T02:59:26.642Z,95056.00
2023-03-29T03:00:26.698Z,95054.00
2023-03-29T03:01:26.759Z,95050.00
2023-03-29T03:02:26.794Z,95052.00
2023-03-29T03:03:26.879Z,95050.00
2023-03-29T03:04:26.864Z,95050.00
2023-03-29T03:05:26.944Z,95048.00
2023-03-29T03:06:26.961Z,95052.00
2023-03-29T03:07:27.065Z,95050.00
2023-03-29T03:08:27.103Z,95048.00
2023-03-29T03:09:27.139Z,95050.00
2023-03-29T03:10:27.188Z,95050.00
2023-03-29T03:11:27.244Z,95052.00
2023-03-29T03:12:27.253Z,95054.00
2023-03-29T03:13:27.414Z,95056.00
2023-03-29T03:14:27.581Z,95054.00
2023-03-29T03:15:27.743Z,95052.00
2023-03-29T03:16:28.076Z,95056.00
2023-03-29T03:17:28.097Z,95056.00
2023-03-29T03:18:28.062Z,95056.00
2023-03-29T03:19:28.064Z,95063.00
2023-03-29T03:20:28.047Z,95063.00
2023-03-29T03:21:28.048Z,95067.00
2023-03-29T03:22:28.026Z,95073.00
2023-03-29T03:23:28.009Z,95075.00
2023-03-29T03:24:28.017Z,95079.00
2023-03-29T03:25:28.006Z,95089.00
2023-03-29T03:26:27.978Z,95093.00
2023-03-29T03:27:27.970Z,95097.00
2023-03-29T03:28:27.996Z,95107.00
2023-03-29T03:29:27.983Z,95107.00
2023-03-29T03:30:27.946Z,95105.00
2023-03-29T03:31:28.005Z,95103.00
2023-03-29T03:32:27.969Z,95101.00
2023-03-29T03:33:27.959Z,95097.00
2023-03-29T03:34:27.945Z,95097.00
2023-03-29T03:35:27.959Z,95097.00
2023-03-29T03:36:27.930Z,95095.00
2023-03-29T03:37:27.915Z,95093.00
2023-03-29T03:38:27.915Z,95091.00
2023-03-29T03:39:27.891Z,95091.00
2023-03-29T03:40:28.403Z,95093.00
2023-03-29T03:41:27.874Z,95095.00
2023-03-29T03:42:27.872Z,95093.00
2023-03-29T03:43:27.904Z,95091.00
2023-03-29T03:44:27.874Z,95089.00
2023-03-29T03:45:27.867Z,95087.00
2023-03-29T03:46:29.605Z,95083.00
2023-03-29T03:47:27.902Z,95085.00
2023-03-29T03:48:27.835Z,95081.00
2023-03-29T03:49:27.819Z,95079.00
2023-03-29T03:50:27.849Z,95077.00
2023-03-29T03:51:27.824Z,95075.00
2023-03-29T03:52:27.824Z,95075.00
2023-03-29T03:53:27.805Z,95073.00
2023-03-29T03:54:27.865Z,95071.00
2023-03-29T03:55:27.918Z,95067.00
2023-03-29T03:56:27.951Z,95067.00
2023-03-29T03:57:27.996Z,95067.00
2023-03-29T03:58:28.074Z,95069.00
2023-03-29T03:59:28.114Z,95067.00
2023-03-29T04:00:28.187Z,95067.00
2023-03-29T04:01:28.251Z,95063.00
2023-03-29T04:02:28.384Z,95062.00
2023-03-29T04:03:28.413Z,95058.00
2023-03-29T04:04:28.436Z,95060.00
2023-03-29T04:05:28.432Z,95058.00
2023-03-29T04:06:28.464Z,95052.00
2023-03-29T04:07:28.512Z,95050.00
2023-03-29T04:08:28.566Z,95052.00
2023-03-29T04:09:28.612Z,95054.00
2023-03-29T04:10:28.668Z,95052.00
2023-03-29T04:11:28.712Z,95052.00
2023-03-29T04:12:28.722Z,95050.00
2023-03-29T04:13:28.770Z,95048.00
2023-03-29T04:14:28.801Z,95050.00
2023-03-29T04:15:28.871Z,95050.00
2023-03-29T04:16:28.912Z,95050.00
2023-03-29T04:17:28.990Z,95046.00
2023-03-29T04:18:29.073Z,95048.00
2023-03-29T04:19:29.067Z,95050.00
2023-03-29T04:20:29.146Z,95048.00
2023-03-29T04:21:29.185Z,95052.00
2023-03-29T04:22:29.239Z,95052.00
2023-03-29T04:23:29.320Z,95048.00
2023-03-29T04:24:29.376Z,95052.00
2023-03-29T04:25:29.415Z,95048.00
2023-03-29T04:26:29.486Z,95046.00
2023-03-29T04:27:29.503Z,95042.00
2023-03-29T04:28:29.525Z,95042.00
2023-03-29T04:29:29.598Z,95042.00
2023-03-29T04:30:29.634Z,95040.00
2023-03-29T04:31:29.763Z,95040.00
2023-03-29T04:32:29.760Z,95040.00
2023-03-29T04:33:29.798Z,95042.00
2023-03-29T04:34:29.835Z,95036.00
2023-03-29T04:35:29.903Z,95040.00
2023-03-29T04:36:29.933Z,95032.00
2023-03-29T04:37:29.995Z,95026.00
2023-03-29T04:38:30.070Z,95026.00
2023-03-29T04:39:30.151Z,95017.00
2023-03-29T04:40:30.186Z,95019.00
2023-03-29T04:41:30.239Z,95024.00
2023-03-29T04:42:30.301Z,95023.00
2023-03-29T04:43:30.367Z,95019.00
2023-03-29T04:44:30.448Z,95019.00
2023-03-29T04:45:30.487Z,95026.00
2023-03-29T04:46:30.705Z,95021.00
2023-03-29T04:47:30.641Z,95026.00
2023-03-29T04:48:30.647Z,95028.00
2023-03-29T04:49:30.696Z,95036.00
2023-03-29T04:50:30.745Z,95036.00
2023-03-29T04:51:30.816Z,95032.00
2023-03-29T04:52:30.900Z,95034.00
2023-03-29T04:53:30.876Z,95032.00
2023-03-29T04:54:30.948Z,95030.00
2023-03-29T04:55:30.988Z,95026.00
2023-03-29T04:56:31.053Z,95026.00
2023-03-29T04:57:31.094Z,95024.00
2023-03-29T04:58:32.482Z,95023.00
2023-03-29T04:59:31.188Z,95021.00
2023-03-29T05:00:31.251Z,95021.00
2023-03-29T05:01:31.415Z,95019.00
2023-03-29T05:02:31.369Z,95017.00
2023-03-29T05:03:31.415Z,95013.00
2023-03-29T05:04:31.566Z,95009.00
2023-03-29T05:05:31.496Z,95011.00
2023-03-29T05:06:31.546Z,95019.00
2023-03-29T05:07:31.612Z,95019.00
2023-03-29T05:08:31.679Z,95023.00
2023-03-29T05:09:33.725Z,95021.00
2023-03-29T05:10:31.749Z,95019.00
2023-03-29T05:11:31.719Z,95021.00
2023-03-29T05:12:31.700Z,95015.00
2023-03-29T05:13:31.713Z,95013.00
2023-03-29T05:14:31.697Z,95009.00
2023-03-29T05:15:31.714Z,95005.00
2023-03-29T05:16:31.741Z,94999.00
2023-03-29T05:17:31.738Z,95001.00
2023-03-29T05:18:31.701Z,95005.00
2023-03-29T05:19:31.671Z,95003.00
2023-03-29T05:20:31.667Z,95001.00
2023-03-29T05:21:31.652Z,94995.00
2023-03-29T05:22:31.650Z,94999.00
2023-03-29T05:23:31.680Z,95005.00
2023-03-29T05:24:31.628Z,95007.00
2023-03-29T05:25:31.925Z,95005.00
2023-03-29T05:26:31.627Z,95007.00
2023-03-29T05:27:31.605Z,95017.00
2023-03-29T05:28:31.601Z,95015.00
2023-03-29T05:29:31.579Z,95009.00
2023-03-29T05:30:31.586Z,95007.00
2023-03-29T05:31:31.645Z,95011.00
2023-03-29T05:32:31.576Z,95009.00
2023-03-29T05:33:31.564Z,95009.00
2023-03-29T05:34:31.587Z,95007.00
2023-03-29T05:35:31.551Z,95003.00
2023-03-29T05:36:31.534Z,95005.00
2023-03-29T05:37:31.552Z,95005.00
2023-03-29T05:38:31.520Z,95001.00
2023-03-29T05:39:31.608Z,95001.00
2023-03-29T05:40:31.630Z,94995.00
2023-03-29T05:41:31.674Z,94999.00
2023-03-29T05:42:31.681Z,94997.00
2023-03-29T05:43:31.781Z,95001.00
2023-03-29T05:44:31.840Z,94999.00
2023-03-29T05:45:31.889Z,94995.00
2023-03-29T05:46:31.869Z,94987.00
2023-03-29T05:47:31.926Z,94991.00
2023-03-29T05:48:31.946Z,94991.00
2023-03-29T05:49:31.949Z,95001.00
2023-03-29T05:50:32.004Z,95007.00
2023-03-29T05:51:32.008Z,95011.00
2023-03-29T05:52:32.043Z,95005.00
2023-03-29T05:53:32.055Z,95007.00
2023-03-29T05:54:32.104Z,95001.00
2023-03-29T05:55:32.210Z,94999.00
2023-03-29T05:56:32.183Z,95001.00
2023-03-29T05:57:32.160Z,95003.00
2023-03-29T05:58:32.176Z,95009.00
2023-03-29T05:59:32.216Z,95011.00
2023-03-29T06:00:32.259Z,95009.00
2023-03-29T06:01:32.301Z,95013.00
2023-03-29T06:02:32.367Z,95009.00
2023-03-29T06:03:32.448Z,95009.00
2023-03-29T06:04:32.436Z,95011.00
2023-03-29T06:05:32.368Z,95003.00
2023-03-29T06:06:32.409Z,95005.00
2023-03-29T06:07:32.398Z,95005.00
2023-03-29T06:08:32.413Z,95009.00
2023-03-29T06:09:32.422Z,95011.00
2023-03-29T06:10:32.440Z,95013.00
2023-03-29T06:11:32.480Z,95013.00
2023-03-29T06:12:32.511Z,95011.00
2023-03-29T06:13:32.506Z,95013.00
2023-03-29T06:14:32.526Z,95013.00
2023-03-29T06:15:32.565Z,95017.00
2023-03-29T06:16:32.662Z,95019.00
2023-03-29T06:17:32.578Z,95005.00
2023-03-29T06:18:32.577Z,95015.00
2023-03-29T06:19:32.581Z,95009.00
2023-03-29T06:20:32.613Z,95015.00
2023-03-29T06:21:32.620Z,95019.00
2023-03-29T06:22:32.622Z,95021.00
2023-03-29T06:23:32.608Z,95023.00
2023-03-29T06:24:32.644Z,95023.00
2023-03-29T06:25:32.634Z,95023.00
2023-03-29T06:26:32.664Z,95024.00
2023-03-29T06:27:32.670Z,95028.00
2023-03-29T06:28:32.678Z,95026.00
2023-03-29T06:29:32.691Z,95026.00
2023-03-29T06:30:32.709Z,95026.00
2023-03-29T06:31:33.064Z,95030.00
2023-03-29T06:32:32.747Z,95017.00
2023-03-29T06:33:32.733Z,95017.00
2023-03-29T06:34:32.810Z,95021.00
2023-03-29T06:35:32.794Z,95021.00
2023-03-29T06:36:32.775Z,95024.00
2023-03-29T06:37:32.867Z,95034.00
2023-03-29T06:38:32.799Z,95038.00
2023-03-29T06:39:32.784Z,95040.00
2023-03-29T06:40:33.492Z,95040.00
2023-03-29T06:41:32.800Z,95038.00
2023-03-29T06:42:32.803Z,95040.00
2023-03-29T06:43:33.314Z,95038.00
2023-03-29T06:44:32.861Z,95036.00
2023-03-29T06:45:32.849Z,95036.00
2023-03-29T06:46:33.022Z,95040.00
2023-03-29T06:47:33.058Z,95040.00
2023-03-29T06:48:32.976Z,95044.00
2023-03-29T06:49:33.009Z,95042.00
2023-03-29T06:50:33.080Z,95044.00
2023-03-29T06:51:33.170Z,95044.00
2023-03-29T06:52:33.483Z,95040.00
2023-03-29T06:53:33.269Z,95042.00
2023-03-29T06:54:33.365Z,95044.00
2023-03-29T06:55:33.399Z,95042.00
2023-03-29T06:56:33.442Z,95042.00
2023-03-29T06:57:33.494Z,95040.00
2023-03-29T06:58:33.501Z,95038.00
2023-03-29T06:59:33.554Z,95040.00
2023-03-29T07:00:33.618Z,95042.00
2023-03-29T07:01:33.693Z,95040.00
2023-03-29T07:02:34.148Z,95044.00
2023-03-29T07:03:33.778Z,95040.00
2023-03-29T07:04:33.899Z,95040.00
2023-03-29T07:05:33.890Z,95036.00
2023-03-29T07:06:33.962Z,95038.00
2023-03-29T07:07:34.493Z,95040.00
2023-03-29T07:08:34.051Z,95044.00
2023-03-29T07:09:34.151Z,95046.00
2023-03-29T07:10:34.197Z,95048.00
2023-03-29T07:11:34.226Z,95038.00
2023-03-29T07:12:34.308Z,95034.00
2023-03-29T07:13:34.333Z,95036.00
2023-03-29T07:14:34.346Z,95038.00
2023-03-29T07:15:34.418Z,95042.00
2023-03-29T07:16:34.480Z,95046.00
2023-03-29T07:17:35.046Z,95050.00
2023-03-29T07:18:34.548Z,95050.00
2023-03-29T07:19:34.667Z,95050.00
2023-03-29T07:20:34.680Z,95046.00
2023-03-29T07:21:36.700Z,95046.00
2023-03-29T07:22:34.739Z,95048.00
2023-03-29T07:23:34.727Z,95054.00
2023-03-29T07:24:34.726Z,95050.00
2023-03-29T07:25:34.724Z,95048.00
2023-03-29T07:26:34.755Z,95036.00
2023-03-29T07:27:35.011Z,95034.00
2023-03-29T07:28:35.009Z,95030.00
2023-03-29T07:29:34.738Z,95028.00
2023-03-29T07:30:35.908Z,95030.00
2023-03-29T07:31:34.687Z,95034.00
2023-03-29T07:32:34.767Z,95040.00
2023-03-29T07:33:35.099Z,95040.00
2023-03-29T07:34:34.676Z,95040.00
2023-03-29T07:35:34.656Z,95046.00
2023-03-29T07:36:34.681Z,95042.00
2023-03-29T07:37:34.991Z,95044.00
2023-03-29T07:38:34.708Z,95044.00
2023-03-29T07:39:34.617Z,95044.00
2023-03-29T07:40:34.607Z,95046.00
2023-03-29T07:41:34.573Z,95044.00
2023-03-29T07:42:34.576Z,95036.00
2023-03-29T07:43:34.590Z,95034.00
2023-03-29T07:44:34.576Z,95036.00
2023-03-29T07:45:34.575Z,95032.00
2023-03-29T07:46:34.612Z,95034.00
2023-03-29T07:47:34.611Z,95038.00
2023-03-29T07:48:34.537Z,95040.00
2023-03-29T07:49:35.011Z,95036.00
2023-03-29T07:50:34.527Z,95036.00
2023-03-29T07:51:34.524Z,95040.00
2023-03-29T07:52:34.495Z,95040.00
2023-03-29T07:53:34.489Z,95040.00
2023-03-29T07:54:34.484Z,95044.00
2023-03-29T07:55:34.498Z,95042.00
2023-03-29T07:56:34.467Z,95048.00
2023-03-29T07:57:34.467Z,95050.00
2023-03-29T07:58:34.451Z,95052.00
2023-03-29T07:59:34.542Z,95048.00
2023-03-29T08:00:34.548Z,95050.00
2023-03-29T08:01:34.429Z,95042.00
2023-03-29T08:02:34.445Z,95036.00
2023-03-29T08:03:34.459Z,95038.00
2023-03-29T08:04:34.548Z,95038.00
2023-03-29T08:05:41.389Z,95036.00
2023-03-29T08:06:35.392Z,95042.00
2023-03-29T08:07:34.422Z,95040.00
2023-03-29T08:08:34.403Z,95038.00
2023-03-29T08:09:34.401Z,95040.00
2023-03-29T08:10:34.402Z,95038.00
2023-03-29T08:11:34.370Z,95036.00
2023-03-29T08:12:34.373Z,95034.00
2023-03-29T08:13:34.381Z,95034.00
2023-03-29T08:14:34.366Z,95032.00
2023-03-29T08:15:34.516Z,95032.00
2023-03-29T08:16:34.439Z,95034.00
2023-03-29T08:17:34.471Z,95036.00
2023-03-29T08:18:35.005Z,95036.00
2023-03-29T08:19:34.576Z,95042.00
2023-03-29T08:20:35.025Z,95040.00
2023-03-29T08:21:34.669Z,95044.00
2023-03-29T08:22:34.717Z,95044.00
2023-03-29T08:23:34.798Z,95048.00
2023-03-29T08:24:34.763Z,95046.00
2023-03-29T08:25:35.067Z,95044.00
2023-03-29T08:26:34.824Z,95044.00
2023-03-29T08:27:34.854Z,95046.00
2023-03-29T08:28:34.836Z,95052.00
2023-03-29T08:29:34.895Z,95056.00
2023-03-29T08:30:35.002Z,95060.00
2023-03-29T08:31:35.030Z,95062.00
2023-03-29T08:32:35.021Z,95062.00
2023-03-29T08:33:35.070Z,95067.00
2023-03-29T08:34:35.126Z,95062.00
2023-03-29T08:35:35.171Z,95063.00
2023-03-29T08:36:35.205Z,95067.00
2023-03-29T08:37:35.278Z,95069.00
2023-03-29T08:38:35.526Z,95067.00
2023-03-29T08:39:35.355Z,95067.00
2023-03-29T08:40:35.417Z,95071.00
2023-03-29T08:41:35.463Z,95073.00
2023-03-29T08:42:35.501Z,95073.00
2023-03-29T08:43:36.020Z,95075.00
2023-03-29T08:44:35.589Z,95071.00
2023-03-29T08:45:35.673Z,95073.00
2023-03-29T08:46:35.964Z,95071.00
2023-03-29T08:47:35.803Z,95073.00
2023-03-29T08:48:35.835Z,95077.00
2023-03-29T08:49:35.875Z,95081.00
2023-03-29T08:50:35.935Z,95079.00
2023-03-29T08:51:35.990Z,95077.00
2023-03-29T08:52:36.026Z,95077.00
2023-03-29T08:53:36.067Z,95073.00
2023-03-29T08:54:36.928Z,95075.00
2023-03-29T08:55:36.197Z,95069.00
2023-03-29T08:56:36.258Z,95071.00
2023-03-29T08:57:36.339Z,95073.00
2023-03-29T08:58:36.392Z,95071.00
2023-03-29T08:59:36.443Z,95071.00
2023-03-29T09:00:36.506Z,95071.00
2023-03-29T09:01:36.613Z,95067.00
2023-03-29T09:02:36.748Z,95069.00
2023-03-29T09:03:36.734Z,95069.00
2023-03-29T09:04:36.733Z,95073.00
2023-03-29T09:05:36.783Z,95065.00
2023-03-29T09:06:36.885Z,95063.00
2023-03-29T09:07:36.925Z,95067.00
2023-03-29T09:08:37.064Z,95062.00
2023-03-29T09:09:37.026Z,95060.00
2023-03-29T09:10:37.100Z,95060.00
2023-03-29T09:11:37.163Z,95062.00
2023-03-29T09:12:37.924Z,95069.00
2023-03-29T09:13:37.252Z,95073.00
2023-03-29T09:14:37.331Z,95077.00
2023-03-29T09:15:37.333Z,95079.00
2023-03-29T09:16:37.599Z,95077.00
2023-03-29T09:17:37.551Z,95075.00
2023-03-29T09:18:37.551Z,95073.00
2023-03-29T09:19:37.615Z,95075.00
2023-03-29T09:20:37.628Z,95075.00
2023-03-29T09:21:37.740Z,95073.00
2023-03-29T09:22:38.033Z,95065.00
2023-03-29T09:23:37.850Z,95062.00
2023-03-29T09:24:37.893Z,95065.00
2023-03-29T09:25:50.725Z,95065.00
2023-03-29T09:26:38.951Z,95060.00
2023-03-29T09:27:38.093Z,95058.00
2023-03-29T09:28:37.989Z,95056.00
2023-03-29T09:29:37.985Z,95060.00
2023-03-29T09:30:37.917Z,95060.00
2023-03-29T09:31:37.997Z,95058.00
2023-03-29T09:32:38.111Z,95054.00
2023-03-29T09:33:37.913Z,95054.00
2023-03-29T09:34:37.946Z,95050.00
2023-03-29T09:35:37.915Z,95054.00
2023-03-29T09:36:38.008Z,95054.00
2023-03-29T09:37:38.079Z,95058.00
2023-03-29T09:38:38.092Z,95056.00
2023-03-29T09:39:38.142Z,95052.00
2023-03-29T09:40:38.179Z,95048.00
2023-03-29T09:41:38.313Z,95054.00
2023-03-29T09:42:38.242Z,95052.00
2023-03-29T09:43:38.254Z,95056.00
2023-03-29T09:44:38.286Z,95052.00
2023-03-29T09:45:38.337Z,95052.00
2023-03-29T09:46:38.308Z,95052.00
2023-03-29T09:47:38.386Z,95052.00
2023-03-29T09:48:38.562Z,95050.00
2023-03-29T09:49:38.330Z,95046.00
2023-03-29T09:50:38.294Z,95040.00
2023-03-29T09:51:38.335Z,95042.00
2023-03-29T09:52:38.361Z,95040.00
2023-03-29T09:53:38.399Z,95040.00
2023-03-29T09:54:38.462Z,95038.00
2023-03-29T09:55:38.526Z,95038.00
2023-03-29T09:56:43.961Z,95040.00
2023-03-29T09:57:38.601Z,95036.00
2023-03-29T09:58:38.987Z,95036.00
2023-03-29T09:59:38.714Z,95036.00
2023-03-29T10:00:38.725Z,95038.00
2023-03-29T10:01:38.867Z,95036.00
2023-03-29T10:02:38.835Z,95032.00
2023-03-29T10:03:39.054Z,95032.00
2023-03-29T10:04:39.092Z,95034.00
2023-03-29T10:05:38.955Z,95030.00
2023-03-29T10:06:38.996Z,95032.00
2023-03-29T10:07:39.013Z,95028.00
2023-03-29T10:08:39.088Z,95028.00
2023-03-29T10:09:39.582Z,95028.00
2023-03-29T10:10:39.183Z,95034.00
2023-03-29T10:11:39.220Z,95032.00
2023-03-29T10:12:39.246Z,95030.00
2023-03-29T10:13:39.269Z,95028.00
2023-03-29T10:14:39.275Z,95026.00
2023-03-29T10:15:39.286Z,95024.00
2023-03-29T10:16:39.317Z,95026.00
2023-03-29T10:17:39.296Z,95030.00
2023-03-29T10:18:39.318Z,95032.00
2023-03-29T10:19:39.561Z,95032.00
2023-03-29T10:20:39.389Z,95030.00
2023-03-29T10:21:39.417Z,95038.00
2023-03-29T10:22:39.424Z,95044.00
2023-03-29T10:23:39.456Z,95046.00
2023-03-29T10:24:39.567Z,95046.00
2023-03-29T10:25:42.069Z,95046.00
2023-03-29T10:26:39.501Z,95044.00
2023-03-29T10:27:39.501Z,95050.00
2023-03-29T10:28:39.474Z,95056.00
2023-03-29T10:29:39.495Z,95052.00
2023-03-29T10:30:39.469Z,95048.00
2023-03-29T10:31:39.526Z,95038.00
2023-03-29T10:32:39.475Z,95038.00
2023-03-29T10:33:39.465Z,95038.00
2023-03-29T10:34:39.464Z,95038.00
2023-03-29T10:35:39.494Z,95036.00
2023-03-29T10:36:39.427Z,95034.00
2023-03-29T10:37:39.427Z,95036.00
2023-03-29T10:38:39.437Z,95032.00
2023-03-29T10:39:39.431Z,95030.00
2023-03-29T10:40:39.399Z,95034.00
2023-03-29T10:41:39.415Z,95036.00
2023-03-29T10:42:39.379Z,95034.00
2023-03-29T10:43:39.368Z,95034.00
2023-03-29T10:44:39.390Z,95028.00
2023-03-29T10:45:39.356Z,95028.00
2023-03-29T10:46:39.390Z,95030.00
2023-03-29T10:47:39.367Z,95026.00
2023-03-29T10:48:39.332Z,95021.00
2023-03-29T10:49:39.352Z,95026.00
2023-03-29T10:50:39.342Z,95024.00
2023-03-29T10:51:39.308Z,95021.00
2023-03-29T10:52:39.322Z,95023.00
2023-03-29T10:53:39.313Z,95019.00
2023-03-29T10:54:39.315Z,95023.00
2023-03-29T10:55:39.300Z,95026.00
2023-03-29T10:56:39.367Z,95026.00
2023-03-29T10:57:39.366Z,95026.00
2023-03-29T10:58:39.282Z,95024.00
2023-03-29T10:59:39.583Z,95019.00
2023-03-29T11:00:39.590Z,95021.00
2023-03-29T11:01:39.323Z,95013.00
2023-03-29T11:02:39.337Z,95017.00
2023-03-29T11:03:39.376Z,95017.00
2023-03-29T11:04:39.281Z,95011.00
2023-03-29T11:05:39.244Z,95011.00
2023-03-29T11:06:40.080Z,95005.00
2023-03-29T11:07:39.236Z,95005.00
2023-03-29T11:08:39.202Z,95007.00
2023-03-29T11:09:39.204Z,95007.00
2023-03-29T11:10:39.187Z,95001.00
2023-03-29T11:11:39.191Z,95001.00
2023-03-29T11:12:39.225Z,95001.00
2023-03-29T11:13:39.187Z,94997.00
2023-03-29T11:14:39.289Z,94997.00
2023-03-29T11:15:39.697Z,95005.00
2023-03-29T11:16:39.170Z,95001.00
2023-03-29T11:17:39.232Z,95003.00
2023-03-29T11:18:39.142Z,95005.00
2023-03-29T11:19:39.145Z,95001.00
2023-03-29T11:20:39.613Z,94993.00
2023-03-29T11:21:39.132Z,94991.00
2023-03-29T11:22:39.148Z,94991.00
2023-03-29T11:23:39.186Z,94989.00
2023-03-29T11:24:39.192Z,94991.00
2023-03-29T11:25:39.280Z,95003.00
2023-03-29T11:26:39.279Z,94995.00
2023-03-29T11:27:39.291Z,94993.00
2023-03-29T11:28:39.289Z,94997.00
2023-03-29T11:29:39.300Z,95001.00
2023-03-29T11:30:39.382Z,95001.00
2023-03-29T11:31:39.479Z,94997.00
2023-03-29T11:32:39.526Z,94997.00
2023-03-29T11:33:39.566Z,94993.00
2023-03-29T11:34:39.614Z,94991.00
2023-03-29T11:35:39.700Z,94993.00
2023-03-29T11:36:39.748Z,94991.00
2023-03-29T11:37:39.791Z,94991.00
2023-03-29T11:38:39.902Z,94989.00
2023-03-29T11:39:39.907Z,94989.00
2023-03-29T11:40:39.985Z,94991.00
2023-03-29T11:41:40.038Z,94991.00
2023-03-29T11:42:40.076Z,94991.00
2023-03-29T11:43:40.138Z,94987.00
2023-03-29T11:44:40.207Z,94991.00